Modesto, California
Current Conditions -  °F | °C
As of 4:53 AM on Thursday 18 Dec 2014 (Local Time) from KMOD Reporting Station
Overcast Overcast  
Wind Chill: 51°   Ceiling: 5500
Heat Index: 51°   Visibility: 10mi
Dew Point: 48°   Wind: 6mph
Humidity: 89%   Direction: 150°SSE
Pressure: 30.11"   Gusts: NA
Location:  37.64°N, 120.99°W
Report Text: KMOD 181253Z AUTO 15005KT 10SM OVC055 11/09 A3011 RMK AO2 SLP198 T01060089
Loading
Personal Weather Stations






























Interactive Weather Map New forecast layout! Learn more

10-Day Weather Forecast

Advertisements
Track Severe Weather on mobile